Time;durP1;ratioP1;P1;durP2;ratioP2;P2;SDS_P1;SDS_P2;PMS_P1;PMS_P2;Temp;Humidity;BMP_temperature;BMP_pressure;BME280_temperature;BME280_humidity;BME280_pressure;Samples;Min_cycle;Max_cycle;Signal;HPM_P1;HPM_P2
2022/12/03 00:00:50;;;;;;;32.25;24.90;;;;;;;1.18;93.42;102268.88;5048675;28;20103;-76
2022/12/03 00:03:16;;;;;;;32.47;25.63;;;;;;;1.17;92.88;102267.16;5044367;28;20041;-76
2022/12/03 00:05:41;;;;;;;35.25;25.20;;;;;;;1.19;92.70;102270.59;5029751;28;20488;-76
2022/12/03 00:08:11;;;;;;;31.58;24.33;;;;;;;1.18;92.60;102258.53;5031537;28;20025;-76
2022/12/03 00:10:36;;;;;;;32.50;25.92;;;;;;;1.17;92.33;102251.63;5034063;28;20027;-76
2022/12/03 00:13:04;;;;;;;32.13;24.63;;;;;;;1.17;92.96;102254.22;5033568;28;20022;-76
2022/12/03 00:15:30;;;;;;;32.17;25.15;;;;;;;1.19;92.81;102261.97;5030193;28;20022;-75
2022/12/03 00:17:55;;;;;;;32.40;24.88;;;;;;;1.19;92.80;102265.41;5011650;28;20543;-76
2022/12/03 00:20:22;;;;;;;31.90;24.70;;;;;;;1.19;93.12;102255.03;5045875;28;20108;-76
2022/12/03 00:22:48;;;;;;;34.20;25.85;;;;;;;1.21;93.93;102258.50;5049852;28;20032;-76
2022/12/03 00:25:13;;;;;;;34.25;25.98;;;;;;;1.18;93.13;102248.16;5048149;28;20016;-76
2022/12/03 00:27:39;;;;;;;34.40;25.52;;;;;;;1.18;93.25;102248.16;5020669;28;20111;-76
2022/12/03 00:30:05;;;;;;;32.78;25.17;;;;;;;1.19;93.58;102244.69;5023834;28;20059;-76
2022/12/03 00:32:31;;;;;;;34.17;25.42;;;;;;;1.18;93.13;102240.38;5012972;28;20037;-76
2022/12/03 00:34:56;;;;;;;33.28;25.88;;;;;;;1.18;92.87;102242.13;5042070;28;20021;-76
2022/12/03 00:37:21;;;;;;;33.33;26.02;;;;;;;1.15;92.91;102237.81;5034291;28;20143;-76
2022/12/03 00:39:47;;;;;;;32.90;25.45;;;;;;;1.16;92.96;102234.34;5042148;28;20025;-77
2022/12/03 00:42:14;;;;;;;36.10;26.02;;;;;;;1.17;93.98;102243.00;5030791;28;20592;-77
2022/12/03 00:44:39;;;;;;;35.50;26.85;;;;;;;1.17;93.84;102236.06;5036659;28;20467;-77
2022/12/03 00:47:05;;;;;;;34.88;25.63;;;;;;;1.19;93.04;102236.91;5042325;28;20113;-77
2022/12/03 00:49:30;;;;;;;35.88;27.02;;;;;;;1.17;93.64;102236.06;5032846;28;20025;-77
2022/12/03 00:51:55;;;;;;;33.97;26.75;;;;;;;1.19;93.29;102234.31;5033423;28;20429;-77
2022/12/03 00:54:21;;;;;;;33.15;25.98;;;;;;;1.17;93.12;102230.88;5031707;28;20056;-76
2022/12/03 00:56:46;;;;;;;35.58;26.50;;;;;;;1.19;93.51;102234.31;5034300;28;20084;-77
2022/12/03 00:59:11;;;;;;;33.83;25.60;;;;;;;1.19;93.16;102229.13;5033312;28;20029;-76
2022/12/03 01:01:37;;;;;;;35.17;26.73;;;;;;;1.21;93.59;102236.91;5034783;28;20069;-76
2022/12/03 01:04:05;;;;;;;37.10;28.13;;;;;;;1.22;93.34;102239.50;5051424;28;20529;-76
2022/12/03 01:06:30;;;;;;;35.72;27.42;;;;;;;1.24;93.55;102231.69;5035885;28;20398;-76
2022/12/03 01:08:56;;;;;;;34.45;27.35;;;;;;;1.24;93.67;102242.06;5020533;28;20029;-76
2022/12/03 01:11:40;;;;;;;35.45;27.20;;;;;;;1.23;93.32;102236.03;5032440;28;20030;-76
2022/12/03 01:14:08;;;;;;;37.83;28.70;;;;;;;1.24;94.00;102232.56;5044912;28;20022;-76
2022/12/03 01:16:34;;;;;;;34.80;27.00;;;;;;;1.25;93.63;102228.22;5036346;28;20029;-76
2022/12/03 01:18:59;;;;;;;37.67;28.35;;;;;;;1.25;93.38;102234.25;5052483;28;20462;-76
2022/12/03 01:21:26;;;;;;;35.58;27.67;;;;;;;1.25;93.46;102230.81;5028252;28;20026;-76
2022/12/03 01:23:51;;;;;;;36.95;27.48;;;;;;;1.26;93.25;102219.56;4998484;28;20033;-76
2022/12/03 01:26:17;;;;;;;38.22;28.73;;;;;;;1.25;93.54;102234.25;5044901;28;20366;-76
2022/12/03 01:28:42;;;;;;;36.50;28.20;;;;;;;1.23;93.87;102230.84;5051487;28;20024;-76
2022/12/03 01:33:52;;;;;;;36.80;27.63;;;;;;;1.28;92.83;102230.78;5052112;28;20043;-76
2022/12/03 01:36:17;;;;;;;36.13;27.48;;;;;;;1.27;93.71;102233.38;5041560;28;20473;-77
2022/12/03 01:38:42;;;;;;;38.13;28.48;;;;;;;1.27;93.79;102226.47;5014454;28;20108;-76
2022/12/03 01:41:08;;;;;;;38.45;28.58;;;;;;;1.24;93.67;102227.38;5031184;28;20520;-76
2022/12/03 01:43:33;;;;;;;36.88;28.38;;;;;;;1.27;93.72;102228.19;5041652;28;20436;-76
2022/12/03 01:45:59;;;;;;;39.35;29.52;;;;;;;1.25;93.68;102223.03;5017207;28;20116;-76
2022/12/03 01:48:24;;;;;;;41.03;30.05;;;;;;;1.25;93.33;102226.47;5030744;28;20053;-77
2022/12/03 01:50:49;;;;;;;39.60;30.13;;;;;;;1.27;93.88;102220.41;5031742;28;20656;-77
2022/12/03 01:53:17;;;;;;;39.13;29.52;;;;;;;1.24;93.39;102224.78;5022768;28;20514;-77
2022/12/03 01:55:44;;;;;;;39.05;29.77;;;;;;;1.24;93.49;102211.81;5024769;28;20112;-77
2022/12/03 01:58:13;;;;;;;38.60;29.98;;;;;;;1.26;93.76;102224.75;5037178;28;20030;-77
2022/12/03 02:00:39;;;;;;;40.03;30.95;;;;;;;1.24;93.73;102214.41;5038473;28;20805;-77
2022/12/03 02:03:17;;;;;;;38.60;30.27;;;;;;;1.25;94.04;102217.84;5029348;28;20057;-77
2022/12/03 02:05:42;;;;;;;39.90;30.55;;;;;;;1.23;93.95;102215.28;5013568;28;20087;-77
2022/12/03 02:08:31;;;;;;;44.33;31.25;;;;;;;1.27;93.67;102215.25;5031901;28;20029;-77
2022/12/03 02:10:58;;;;;;;41.88;31.33;;;;;;;1.25;94.55;102218.72;5050429;28;20029;-77
2022/12/03 02:13:24;;;;;;;39.10;29.98;;;;;;;1.23;93.81;102209.25;5047526;28;20064;-76
2022/12/03 02:15:49;;;;;;;40.08;30.63;;;;;;;1.27;94.37;102216.09;5050939;28;20059;-76
2022/12/03 02:18:14;;;;;;;40.90;30.88;;;;;;;1.25;94.43;102218.72;5047471;28;20508;-76
2022/12/03 02:20:52;;;;;;;40.85;30.15;;;;;;;1.25;94.37;102218.72;5032874;28;20024;-76
2022/12/03 02:23:49;;;;;;;44.05;32.03;;;;;;;1.29;94.80;102216.06;5050358;28;20020;-76
2022/12/03 02:26:14;;;;;;;41.70;31.33;;;;;;;1.23;94.43;102215.28;5005957;28;20076;-76
2022/12/03 02:28:40;;;;;;;43.00;32.10;;;;;;;1.25;94.33;102213.53;5030132;28;20053;-76
2022/12/03 02:31:06;;;;;;;40.70;30.80;;;;;;;1.25;94.51;102212.66;5015209;28;20124;-77
2022/12/03 02:33:33;;;;;;;41.55;31.23;;;;;;;1.27;94.16;102202.28;5019187;28;20501;-77
2022/12/03 02:35:58;;;;;;;40.75;30.83;;;;;;;1.28;94.56;102211.75;5051466;28;20028;-77
2022/12/03 02:38:26;;;;;;;38.65;30.50;;;;;;;1.29;94.75;102210.88;5049580;28;20113;-77
2022/12/03 02:40:56;;;;;;;42.80;31.25;;;;;;;1.27;94.24;102212.66;5050606;28;20029;-77
2022/12/03 02:43:24;;;;;;;38.92;30.08;;;;;;;1.26;94.44;102204.00;5050775;28;20033;-77
2022/12/03 02:45:54;;;;;;;41.53;31.02;;;;;;;1.25;94.84;102205.75;5034174;28;20049;-77
2022/12/03 02:48:34;;;;;;;41.10;31.45;;;;;;;1.27;95.15;102204.88;5049177;28;20028;-77
2022/12/03 02:51:04;;;;;;;42.08;31.58;;;;;;;1.24;94.29;102204.03;5038275;28;20477;-77
2022/12/03 02:53:35;;;;;;;41.83;30.70;;;;;;;1.24;94.57;102201.44;5050513;28;20032;-77
2022/12/03 02:56:03;;;;;;;41.58;31.60;;;;;;;1.25;94.66;102197.97;5013108;28;20037;-77
2022/12/03 02:58:31;;;;;;;41.50;31.88;;;;;;;1.25;94.66;102197.97;5012403;28;20057;-77
2022/12/03 03:00:58;;;;;;;40.72;30.98;;;;;;;1.29;95.18;102203.09;5023052;28;20129;-77
2022/12/03 03:03:26;;;;;;;41.55;32.05;;;;;;;1.27;94.57;102200.53;5027916;28;20422;-77
2022/12/03 03:05:55;;;;;;;40.95;31.13;;;;;;;1.27;95.03;102200.53;5036916;28;20085;-77
2022/12/03 03:08:21;;;;;;;43.30;31.83;;;;;;;1.29;94.99;102197.91;5016399;28;20021;-78
2022/12/03 03:10:47;;;;;;;41.08;31.73;;;;;;;1.25;94.63;102197.97;5049586;28;20539;-77
2022/12/03 03:13:14;;;;;;;41.65;31.25;;;;;;;1.25;95.04;102197.97;5048400;28;20057;-77
2022/12/03 03:15:40;;;;;;;44.45;32.75;;;;;;;1.25;95.25;102197.13;5020498;28;20136;-77
2022/12/03 03:18:10;;;;;;;44.35;32.65;;;;;;;1.27;95.67;102194.50;5035959;28;20071;-77
2022/12/03 03:20:36;;;;;;;40.40;31.27;;;;;;;1.25;95.79;102192.78;5029542;28;20474;-77
2022/12/03 03:23:12;;;;;;;41.67;31.30;;;;;;;1.27;95.45;102194.50;5041163;28;20037;-77
2022/12/03 03:25:39;;;;;;;39.72;31.35;;;;;;;1.25;95.33;102187.59;5030607;28;20035;-77
2022/12/03 03:28:05;;;;;;;44.38;32.40;;;;;;;1.25;95.16;102182.41;5011935;28;20094;-77
2022/12/03 03:30:35;;;;;;;47.10;33.83;;;;;;;1.28;95.76;102181.50;5037697;28;20035;-77
2022/12/03 03:33:00;;;;;;;40.92;31.40;;;;;;;1.28;94.86;102176.31;5019574;28;20646;-77
2022/12/03 03:35:26;;;;;;;44.35;32.63;;;;;;;1.27;95.10;102178.94;5029835;28;20040;-77
2022/12/03 03:37:53;;;;;;;44.05;31.55;;;;;;;1.25;95.39;102177.22;5026804;28;20025;-77
2022/12/03 03:40:21;;;;;;;43.13;31.45;;;;;;;1.27;95.97;102178.94;5039026;28;20017;-77
2022/12/03 03:42:47;;;;;;;43.63;32.38;;;;;;;1.27;95.13;102178.94;5043935;28;20033;-77
2022/12/03 03:45:13;;;;;;;45.13;32.40;;;;;;;1.27;95.95;102174.63;5045843;28;20025;-77
2022/12/03 03:47:39;;;;;;;44.65;33.13;;;;;;;1.25;95.62;102172.03;5031499;28;20119;-76
2022/12/03 03:50:07;;;;;;;41.03;31.80;;;;;;;1.26;95.75;102172.91;5048097;28;20142;-77
2022/12/03 03:52:36;;;;;;;40.90;31.52;;;;;;;1.29;95.51;102166.81;5049979;28;20504;-77
2022/12/03 03:55:02;;;;;;;42.33;32.28;;;;;;;1.29;95.45;102170.25;5048250;28;20604;-77
2022/12/03 03:57:28;;;;;;;42.90;33.05;;;;;;;1.28;94.98;102173.72;5032752;28;20040;-77
2022/12/03 03:59:53;;;;;;;43.78;33.55;;;;;;;1.27;95.55;102171.16;5046692;28;20028;-77
2022/12/03 04:02:20;;;;;;;42.83;33.00;;;;;;;1.28;95.24;102176.31;5018834;28;20045;-77
2022/12/03 04:04:47;;;;;;;44.88;33.50;;;;;;;1.28;95.60;102175.47;5030376;28;20039;-77
2022/12/03 04:07:13;;;;;;;43.83;33.25;;;;;;;1.26;94.83;102172.91;5051064;28;20035;-77
2022/12/03 04:09:38;;;;;;;45.65;33.40;;;;;;;1.24;95.08;102159.97;5034858;28;20432;-77
2022/12/03 04:14:49;;;;;;;43.40;32.78;;;;;;;1.24;95.40;102170.34;5033937;28;20137;-77
2022/12/03 04:17:15;;;;;;;45.83;34.28;;;;;;;1.24;95.23;102159.09;5032454;28;20025;-76
2022/12/03 04:19:40;;;;;;;44.78;34.30;;;;;;;1.25;95.39;102160.81;5048975;28;20091;-76
2022/12/03 04:24:50;;;;;;;46.50;34.65;;;;;;;1.23;95.77;102158.25;5052870;28;20099;-76
2022/12/03 04:29:59;;;;;;;41.60;32.45;;;;;;;1.23;95.68;102158.25;5041096;28;20036;-76
2022/12/03 04:37:52;;;;;;;42.85;33.30;;;;;;;1.24;95.43;102159.97;5051014;28;20031;-76
2022/12/03 04:43:05;;;;;;;44.20;34.33;;;;;;;1.23;95.62;102165.16;5047900;28;20037;-76
2022/12/03 04:45:30;;;;;;;46.58;34.95;;;;;;;1.22;95.85;102161.72;5036358;28;20370;-76
2022/12/03 04:47:56;;;;;;;46.03;34.90;;;;;;;1.24;95.82;102162.56;5038687;28;20112;-76
2022/12/03 04:50:21;;;;;;;45.05;34.35;;;;;;;1.25;95.74;102160.81;5015002;28;20026;-75
2022/12/03 04:52:46;;;;;;;45.63;34.67;;;;;;;1.23;95.70;102153.06;5020875;28;20094;-76
2022/12/03 04:55:12;;;;;;;48.30;34.67;;;;;;;1.21;95.26;102160.00;5020767;28;20094;-76
2022/12/03 04:57:37;;;;;;;47.03;34.90;;;;;;;1.22;95.91;102156.53;5029683;28;20075;-75
2022/12/03 05:00:06;;;;;;;46.25;34.70;;;;;;;1.20;96.36;102153.13;5031123;28;20116;-76
2022/12/03 05:02:31;;;;;;;43.97;33.97;;;;;;;1.20;96.80;102152.22;5015047;28;20050;-76
2022/12/03 05:04:56;;;;;;;44.33;33.78;;;;;;;1.21;95.99;102154.81;5034169;28;20057;-76
2022/12/03 05:07:22;;;;;;;44.60;33.53;;;;;;;1.22;96.11;102155.69;5033011;28;20060;-76
2022/12/03 05:09:52;;;;;;;44.15;33.40;;;;;;;1.21;96.55;102152.22;5049806;28;20029;-76
2022/12/03 05:12:17;;;;;;;44.70;34.75;;;;;;;1.23;96.57;102147.88;5051442;28;20036;-76
2022/12/03 05:14:43;;;;;;;43.80;33.75;;;;;;;1.22;96.09;102143.56;5044810;28;20465;-76
2022/12/03 05:17:08;;;;;;;44.47;33.70;;;;;;;1.22;96.06;102143.56;5043630;28;20059;-76
2022/12/03 05:22:17;;;;;;;44.90;33.80;;;;;;;1.24;96.60;102139.22;5036637;28;20075;-76
2022/12/03 05:24:42;;;;;;;41.63;32.58;;;;;;;1.23;96.80;102142.69;5033383;28;20028;-76
2022/12/03 05:27:08;;;;;;;44.10;33.70;;;;;;;1.23;96.50;102144.44;5050257;28;20513;-76
2022/12/03 05:29:33;;;;;;;46.60;35.80;;;;;;;1.25;96.52;102140.09;5051791;28;20025;-76
2022/12/03 05:31:58;;;;;;;46.80;35.33;;;;;;;1.22;96.23;102140.97;5040344;28;20018;-77
2022/12/03 05:34:23;;;;;;;45.72;36.33;;;;;;;1.21;96.51;102143.59;5034919;28;20039;-77
2022/12/03 05:36:49;;;;;;;49.42;36.25;;;;;;;1.20;96.76;102131.50;5041414;28;20039;-77
2022/12/03 05:39:14;;;;;;;46.17;35.00;;;;;;;1.18;96.79;102135.84;5046385;28;20066;-77
2022/12/03 05:44:27;;;;;;;46.45;35.40;;;;;;;1.19;97.25;102125.44;5051280;28;20032;-77
2022/12/03 05:46:53;;;;;;;45.63;35.10;;;;;;;1.21;97.03;102123.72;5034280;28;20037;-77
2022/12/03 05:49:21;;;;;;;48.58;35.97;;;;;;;1.20;97.32;102127.19;5047650;28;20043;-77
2022/12/03 05:51:47;;;;;;;49.45;35.25;;;;;;;1.19;96.69;102120.25;5034155;28;20080;-76
2022/12/03 05:54:12;;;;;;;48.28;36.53;;;;;;;1.19;96.90;102122.84;5051461;28;20029;-77
2022/12/03 05:56:37;;;;;;;50.13;37.03;;;;;;;1.18;97.14;102117.69;5025000;28;20037;-77
2022/12/03 05:59:06;;;;;;;47.88;34.90;;;;;;;1.18;96.90;102126.31;5032216;28;20021;-77
2022/12/03 06:01:31;;;;;;;49.47;36.15;;;;;;;1.15;96.97;102118.59;5031301;28;20037;-76
2022/12/03 06:03:56;;;;;;;49.15;35.78;;;;;;;1.18;96.92;102117.69;5015040;28;20037;-76
2022/12/03 06:06:22;;;;;;;50.65;37.00;;;;;;;1.18;96.73;102117.69;5036182;28;20378;-76
2022/12/03 06:08:47;;;;;;;48.10;35.10;;;;;;;1.17;97.29;102114.25;5032649;28;20082;-76
2022/12/03 06:11:12;;;;;;;47.17;35.60;;;;;;;1.15;97.38;102118.59;5036954;28;20028;-76
2022/12/03 06:13:38;;;;;;;50.83;37.00;;;;;;;1.14;97.73;102114.28;5033610;28;20033;-77
2022/12/03 06:16:03;;;;;;;50.80;36.83;;;;;;;1.14;97.25;102122.06;5033419;28;20029;-77
2022/12/03 06:18:29;;;;;;;47.60;36.13;;;;;;;1.13;97.89;102120.34;5044693;28;20040;-77
2022/12/03 06:20:54;;;;;;;49.20;36.78;;;;;;;1.11;98.12;102111.75;5052006;28;20024;-77
2022/12/03 06:23:19;;;;;;;50.22;36.70;;;;;;;1.12;98.29;102108.28;5049980;28;20036;-77
2022/12/03 06:25:44;;;;;;;53.45;37.60;;;;;;;1.12;97.66;102116.06;5030222;28;20742;-77
2022/12/03 06:28:10;;;;;;;51.95;37.78;;;;;;;1.10;97.89;102115.22;5037079;28;20033;-77
2022/12/03 06:30:35;;;;;;;52.55;37.90;;;;;;;1.10;98.11;102120.41;5029294;28;20021;-77
2022/12/03 06:33:00;;;;;;;50.53;37.83;;;;;;;1.10;98.31;102125.59;5013597;28;20029;-77
2022/12/03 06:35:27;;;;;;;50.72;37.13;;;;;;;1.10;98.35;102125.59;5035418;28;20029;-77
2022/12/03 06:37:52;;;;;;;52.90;38.38;;;;;;;1.11;98.17;102116.94;5030487;28;20501;-77
2022/12/03 06:40:23;;;;;;;50.92;37.10;;;;;;;1.11;97.93;102132.47;5023263;28;20112;-77
2022/12/03 06:42:48;;;;;;;50.30;37.47;;;;;;;1.14;98.12;102131.56;5036154;28;20028;-76
2022/12/03 06:45:14;;;;;;;50.17;37.05;;;;;;;1.15;98.71;102123.78;5030670;28;20393;-78
2022/12/03 06:47:39;;;;;;;50.20;37.42;;;;;;;1.14;98.05;102119.47;5030469;28;20037;-77
2022/12/03 06:50:06;;;;;;;53.17;38.03;;;;;;;1.14;98.07;102116.88;5030535;28;20021;-77
2022/12/03 06:52:31;;;;;;;52.92;37.25;;;;;;;1.12;98.04;102112.59;5030439;28;20429;-77
2022/12/03 06:54:57;;;;;;;51.08;36.65;;;;;;;1.13;97.96;102112.59;5033195;28;20029;-77
2022/12/03 06:57:22;;;;;;;50.38;35.95;;;;;;;1.10;97.53;102104.84;5030986;28;20029;-77
2022/12/03 06:59:47;;;;;;;52.92;36.63;;;;;;;1.14;97.57;102113.44;5035539;28;20029;-77
2022/12/03 07:02:13;;;;;;;52.92;36.55;;;;;;;1.11;97.48;102116.06;5048082;28;20195;-77
2022/12/03 07:04:38;;;;;;;51.45;36.70;;;;;;;1.10;97.39;102115.22;5049094;28;20037;-77
2022/12/03 07:07:03;;;;;;;51.40;36.60;;;;;;;1.09;97.72;102116.09;5050345;28;20100;-76
2022/12/03 07:09:28;;;;;;;50.92;36.40;;;;;;;1.11;98.32;102113.47;5050310;28;20527;-76
2022/12/03 07:11:54;;;;;;;48.15;36.03;;;;;;;1.08;98.10;102110.94;5048874;28;20021;-76
2022/12/03 07:14:22;;;;;;;51.80;36.33;;;;;;;1.07;97.96;102112.66;5039923;28;20029;-77
2022/12/03 07:16:47;;;;;;;50.72;35.95;;;;;;;1.08;97.87;102121.31;5030887;28;20061;-77
2022/12/03 07:19:13;;;;;;;48.38;35.20;;;;;;;1.09;97.71;102116.09;5048692;28;20063;-76
2022/12/03 07:21:38;;;;;;;52.17;35.83;;;;;;;1.10;97.02;102115.22;5050577;28;20468;-76
2022/12/03 07:24:04;;;;;;;48.60;36.38;;;;;;;1.10;97.19;102112.63;5046903;28;20066;-76
2022/12/03 07:26:30;;;;;;;68.30;34.92;;;;;;;1.11;97.45;102116.94;5028156;28;20022;-76
2022/12/03 07:28:57;;;;;;;47.50;34.60;;;;;;;1.10;97.15;102107.44;5043590;28;20036;-76
2022/12/03 07:31:22;;;;;;;49.70;35.40;;;;;;;1.09;97.50;102113.50;5048191;28;20415;-76
2022/12/03 07:33:47;;;;;;;51.38;35.20;;;;;;;1.11;97.39;102113.47;5048625;28;20481;-77
2022/12/03 07:36:13;;;;;;;49.40;35.00;;;;;;;1.10;97.06;102104.84;5048068;28;20167;-77
2022/12/03 07:38:38;;;;;;;48.13;35.00;;;;;;;1.10;96.72;102104.84;5031589;28;20036;-77
2022/12/03 07:41:04;;;;;;;50.45;35.20;;;;;;;1.10;96.68;102104.84;5026586;28;20021;-76
2022/12/03 07:43:29;;;;;;;49.63;35.80;;;;;;;1.09;97.05;102110.06;5048204;28;20027;-77
2022/12/03 07:45:54;;;;;;;54.72;34.65;;;;;;;1.11;97.35;102111.75;5030309;28;20469;-76
2022/12/03 07:48:20;;;;;;;49.88;34.92;;;;;;;1.10;96.79;102114.38;5029301;28;20055;-76
2022/12/03 07:50:45;;;;;;;49.72;35.20;;;;;;;1.12;97.08;102107.41;5048817;28;20048;-76
2022/12/03 07:53:10;;;;;;;48.58;34.10;;;;;;;1.13;96.74;102110.00;5048624;28;20396;-77
2022/12/03 07:55:36;;;;;;;48.35;35.22;;;;;;;1.14;96.85;102116.03;5030381;28;20021;-77
2022/12/03 07:58:01;;;;;;;47.95;35.10;;;;;;;1.14;96.71;102111.69;5048935;28;20506;-77
2022/12/03 08:00:26;;;;;;;50.58;35.60;;;;;;;1.12;97.16;102125.56;5036301;28;20124;-76
2022/12/03 08:02:52;;;;;;;52.60;35.35;;;;;;;1.14;96.60;102119.47;5031034;28;20064;-76
2022/12/03 08:05:17;;;;;;;51.97;34.95;;;;;;;1.13;97.09;102115.16;5031221;28;20025;-76
2022/12/03 08:07:44;;;;;;;48.85;35.35;;;;;;;1.12;96.90;102113.47;5030929;28;20051;-78
2022/12/03 08:10:10;;;;;;;52.67;36.85;;;;;;;1.15;96.62;102121.19;5049254;28;20028;-77
2022/12/03 08:12:40;;;;;;;53.50;35.42;;;;;;;1.16;97.16;102120.31;5049361;28;20029;-76
2022/12/03 08:15:12;;;;;;;49.60;35.22;;;;;;;1.15;96.99;102123.78;5031009;28;20466;-76
2022/12/03 08:17:39;;;;;;;47.95;34.20;;;;;;;1.17;96.46;102124.63;5030912;28;20041;-76
2022/12/03 08:20:12;;;;;;;46.58;33.45;;;;;;;1.18;96.02;102121.13;5031438;28;20024;-76
2022/12/03 08:22:40;;;;;;;44.97;33.45;;;;;;;1.19;96.27;102114.22;5030994;28;20355;-76
2022/12/03 08:25:13;;;;;;;48.13;33.20;;;;;;;1.18;95.79;102120.28;5048502;28;20059;-75
2022/12/03 08:27:38;;;;;;;50.75;34.00;;;;;;;1.21;95.96;102120.28;5048978;28;20120;-77
2022/12/03 08:30:05;;;;;;;50.70;37.22;;;;;;;1.22;95.51;102129.75;5030394;28;20112;-80
2022/12/03 08:32:30;;;;;;;48.83;33.08;;;;;;;1.25;95.86;102125.38;5028931;28;20040;-77
2022/12/03 08:34:56;;;;;;;45.47;33.08;;;;;;;1.24;95.10;102121.06;5012538;28;20021;-77
2022/12/03 08:37:21;;;;;;;46.00;31.75;;;;;;;1.26;94.87;102126.25;5013237;28;20025;-77
2022/12/03 08:39:48;;;;;;;47.75;32.50;;;;;;;1.24;94.82;102128.84;5017888;28;20481;-77
2022/12/03 08:42:40;;;;;;;44.65;30.55;;;;;;;1.24;94.96;102131.44;5021939;28;20498;-77
2022/12/03 08:45:27;;;;;;;46.03;31.30;;;;;;;1.29;94.76;102128.78;5022126;28;20021;-77
2022/12/03 08:48:22;;;;;;;48.80;32.28;;;;;;;1.27;93.93;102127.94;5036149;28;20036;-77
2022/12/03 08:50:47;;;;;;;46.45;31.70;;;;;;;1.27;94.79;102116.72;5013318;28;20044;-77
2022/12/03 08:53:13;;;;;;;46.22;31.48;;;;;;;1.28;94.71;102119.28;5030773;28;20108;-77
2022/12/03 08:55:44;;;;;;;53.72;35.53;;;;;;;1.29;95.58;102121.00;5041095;28;20521;-77
2022/12/03 08:58:22;;;;;;;55.80;38.80;;;;;;;1.29;95.43;102126.19;5032682;28;20030;-77
2022/12/03 09:00:55;;;;;;;55.30;39.78;;;;;;;1.30;95.76;102122.72;5028983;28;20398;-77
2022/12/03 09:03:21;;;;;;;57.47;38.33;;;;;;;1.31;94.99;102124.44;5047798;28;20075;-77
2022/12/03 09:05:46;;;;;;;66.35;37.78;;;;;;;1.31;94.67;102118.38;5030077;28;20034;-77
2022/12/03 09:08:11;;;;;;;50.70;32.60;;;;;;;1.35;94.72;102122.66;5038840;28;20021;-77
2022/12/03 09:10:37;;;;;;;48.17;32.55;;;;;;;1.30;94.68;102127.06;5019015;28;20137;-77
2022/12/03 09:13:05;;;;;;;48.03;33.25;;;;;;;1.32;95.54;102125.28;5028684;28;20489;-76
2022/12/03 09:15:31;;;;;;;46.08;32.08;;;;;;;1.32;95.41;102125.28;5031838;28;20026;-77
2022/12/03 09:17:56;;;;;;;49.33;32.97;;;;;;;1.36;95.43;102116.56;5012533;28;20022;-76
2022/12/03 09:20:21;;;;;;;49.22;32.78;;;;;;;1.35;95.06;102125.25;5030219;28;20116;-76
2022/12/03 09:22:47;;;;;;;49.58;32.70;;;;;;;1.34;94.80;102121.78;5031856;28;20029;-76
2022/12/03 09:25:12;;;;;;;47.58;32.45;;;;;;;1.32;94.55;102122.69;5019359;28;20030;-76
2022/12/03 09:27:37;;;;;;;47.83;32.85;;;;;;;1.30;94.36;102122.72;5009280;28;20333;-76
2022/12/03 09:30:04;;;;;;;58.00;35.15;;;;;;;1.35;93.89;102130.41;5030966;28;20060;-76
2022/12/03 09:32:29;;;;;;;19.83;8.23;;;;;;;1.42;94.48;102126.84;5022971;28;20120;-76
2022/12/03 09:34:55;;;;;;;50.47;32.92;;;;;;;1.33;92.87;102121.81;5005426;28;21062;-76
2022/12/03 09:37:21;;;;;;;22.52;11.38;;;;;;;1.38;93.42;102125.19;5031067;28;20056;-75
2022/12/03 09:39:46;;;;;;;23.08;8.18;;;;;;;1.39;93.45;102121.72;5031107;28;20478;-77
2022/12/03 09:42:13;;;;;;;48.88;32.08;;;;;;;1.32;92.78;102122.69;5013328;28;20017;-76
2022/12/03 09:44:38;;;;;;;48.35;31.02;;;;;;;1.30;92.57;102121.88;5030757;28;20618;-76
2022/12/03 09:47:04;;;;;;;48.75;31.83;;;;;;;1.29;92.52;102121.00;5029841;28;20488;-75
2022/12/03 09:49:31;;;;;;;50.60;32.42;;;;;;;1.24;92.09;102113.31;5013483;28;20512;-76
2022/12/03 09:51:59;;;;;;;52.65;33.50;;;;;;;1.25;91.89;102115.00;5012770;28;20037;-76
2022/12/03 09:54:27;;;;;;;49.78;32.42;;;;;;;1.23;91.81;102116.78;5012231;28;20018;-76
2022/12/03 09:56:54;;;;;;;49.72;32.00;;;;;;;1.23;91.80;102114.19;5010639;28;20220;-77
2022/12/03 09:59:22;;;;;;;48.60;31.77;;;;;;;1.22;91.89;102109.88;5023742;28;20034;-77
2022/12/03 10:01:47;;;;;;;45.63;30.88;;;;;;;1.19;91.87;102109.91;5007909;28;20049;-76
2022/12/03 10:04:13;;;;;;;47.72;31.05;;;;;;;1.19;91.49;102104.72;5009249;28;20402;-77
2022/12/03 10:06:38;;;;;;;50.78;30.55;;;;;;;1.17;91.33;102101.28;5010663;28;20041;-77
2022/12/03 10:09:05;;;;;;;49.05;29.92;;;;;;;1.19;91.29;102104.72;5009457;28;20501;-77
2022/12/03 10:11:31;;;;;;;45.00;29.35;;;;;;;1.23;90.94;102105.56;5010282;28;20537;-76
2022/12/03 10:13:57;;;;;;;43.60;29.33;;;;;;;1.21;91.08;102100.38;5011190;28;20433;-77
2022/12/03 10:16:23;;;;;;;40.80;27.83;;;;;;;1.19;89.33;102098.66;4995068;28;20029;-77
2022/12/03 10:18:55;;;;;;;37.97;26.08;;;;;;;1.19;89.58;102099.53;4996272;28;20027;-78
2022/12/03 10:21:37;;;;;;;36.83;25.97;;;;;;;1.22;89.16;102096.91;4999419;28;20022;-78
2022/12/03 10:24:28;;;;;;;38.95;26.70;;;;;;;1.23;89.38;102097.78;4990916;28;20034;-78
2022/12/03 10:27:14;;;;;;;36.33;26.08;;;;;;;1.21;89.41;102092.63;5005551;28;20037;-78
2022/12/03 10:29:40;;;;;;;40.05;26.83;;;;;;;1.23;89.65;102082.22;4994836;28;20092;-78
2022/12/03 10:32:08;;;;;;;37.38;26.00;;;;;;;1.22;88.80;102088.28;5004732;28;20482;-78
2022/12/03 10:34:37;;;;;;;36.28;25.40;;;;;;;1.19;88.92;102089.16;5009181;28;20025;-78
2022/12/03 10:37:11;;;;;;;35.55;25.02;;;;;;;1.16;88.89;102075.38;5002690;28;20433;-78
2022/12/03 10:39:57;;;;;;;38.47;26.02;;;;;;;1.19;88.94;102068.41;4999830;28;20105;-78
2022/12/03 10:42:28;;;;;;;36.40;25.30;;;;;;;1.11;87.83;102059.91;5007973;28;20853;-78
2022/12/03 10:45:11;;;;;;;39.83;25.85;;;;;;;1.13;88.23;102060.75;5011224;28;20022;-78
2022/12/03 10:47:36;;;;;;;40.70;25.33;;;;;;;1.10;88.38;102055.59;5006440;28;20030;-78
2022/12/03 10:50:05;;;;;;;37.45;26.08;;;;;;;1.07;88.92;102053.06;5009370;28;20043;-78
2022/12/03 10:52:31;;;;;;;39.88;27.05;;;;;;;1.03;89.04;102058.31;5005251;28;20034;-77
2022/12/03 10:54:57;;;;;;;38.08;26.75;;;;;;;1.05;89.56;102052.25;4995312;28;20478;-78
2022/12/03 10:57:23;;;;;;;41.90;27.85;;;;;;;1.03;89.18;102043.63;4992385;28;20033;-78
2022/12/03 10:59:48;;;;;;;35.92;26.65;;;;;;;1.08;88.98;102043.56;4990040;28;20109;-77
2022/12/03 11:02:22;;;;;;;40.63;27.67;;;;;;;1.13;89.43;102040.00;4996434;28;20129;-76
2022/12/03 11:04:48;;;;;;;38.58;26.33;;;;;;;1.13;89.38;102042.59;5007554;28;20384;-77
2022/12/03 11:07:17;;;;;;;37.80;26.70;;;;;;;1.13;88.59;102042.59;5008621;28;20041;-77
2022/12/03 11:09:45;;;;;;;36.78;26.33;;;;;;;1.16;88.52;102041.69;5008654;28;20033;-77
2022/12/03 11:12:26;;;;;;;35.80;26.40;;;;;;;1.22;88.36;102041.63;5002933;28;20109;-77
2022/12/03 11:14:52;;;;;;;35.13;25.42;;;;;;;1.27;87.61;102028.59;5002168;28;20033;-76
2022/12/03 11:17:23;;;;;;;34.05;25.33;;;;;;;1.28;87.63;102025.97;5008188;28;20034;-76
2022/12/03 11:19:49;;;;;;;34.63;25.55;;;;;;;1.35;86.92;102026.72;5009872;28;20033;-76
2022/12/03 11:22:27;;;;;;;34.00;24.70;;;;;;;1.40;87.22;102023.16;5008892;28;20020;-76
2022/12/03 11:25:27;;;;;;;34.65;25.60;;;;;;;1.43;87.92;102024.84;4998535;28;20091;-76
2022/12/03 11:28:10;;;;;;;34.75;25.95;;;;;;;1.47;87.58;102027.34;4991910;28;20022;-76
2022/12/03 11:30:48;;;;;;;35.40;26.23;;;;;;;1.45;86.73;102017.88;5008393;28;20033;-76
2022/12/03 11:33:20;;;;;;;36.38;27.15;;;;;;;1.39;85.97;102023.19;5009712;28;20053;-76
2022/12/03 11:36:06;;;;;;;38.25;27.77;;;;;;;1.39;85.80;102016.25;5010265;28;20021;-75
2022/12/03 11:38:44;;;;;;;37.70;27.45;;;;;;;1.36;86.27;102008.53;5007720;28;20056;-75
2022/12/03 11:41:23;;;;;;;38.45;27.88;;;;;;;1.32;86.61;102014.66;5002242;28;20478;-76
2022/12/03 11:43:51;;;;;;;34.75;26.48;;;;;;;1.29;85.99;102011.28;4990604;28;20216;-75